Time;durP1;ratioP1;P1;durP2;ratioP2;P2;SDS_P1;SDS_P2;PMS_P1;PMS_P2;Temp;Humidity;BMP_temperature;BMP_pressure;BME280_temperature;BME280_humidity;BME280_pressure;Samples;Min_cycle;Max_cycle;Signal;HPM_P1;HPM_P2
2021/08/14 00:00:21;;;;;;;19.70;13.23;;;23.00;95.90;;;;;;4947474;29;20910;-92
2021/08/14 00:03:01;;;;;;;17.07;13.50;;;23.00;96.00;;;;;;4939394;29;20460;-92
2021/08/14 00:05:30;;;;;;;16.67;14.87;;;22.90;96.20;;;;;;4938261;29;20879;-93
2021/08/14 00:07:56;;;;;;;19.27;14.40;;;22.90;96.40;;;;;;4939343;29;20524;-91
2021/08/14 00:10:25;;;;;;;15.27;13.67;;;22.80;96.70;;;;;;4938317;29;20856;-88
2021/08/14 00:12:51;;;;;;;17.93;14.70;;;22.80;97.00;;;;;;4938264;29;20930;-92
2021/08/14 00:15:18;;;;;;;17.67;16.00;;;22.80;97.20;;;;;;4937702;29;20578;-92
2021/08/14 00:17:45;;;;;;;15.07;12.50;;;22.80;97.50;;;;;;4945678;29;20459;-91
2021/08/14 00:20:15;;;;;;;18.07;13.83;;;22.70;97.70;;;;;;4941382;29;20455;-92
2021/08/14 00:22:45;;;;;;;15.67;13.70;;;22.60;98.10;;;;;;4939052;29;20815;-92
2021/08/14 00:25:12;;;;;;;14.77;13.27;;;22.50;98.40;;;;;;4956473;28;20964;-91
2021/08/14 00:27:41;;;;;;;12.23;11.03;;;22.50;98.60;;;;;;4963445;28;20470;-91
2021/08/14 00:30:10;;;;;;;12.63;11.53;;;22.40;98.70;;;;;;4958777;28;20521;-92
2021/08/14 00:32:37;;;;;;;13.80;12.60;;;22.50;98.90;;;;;;4957505;28;20988;-92
2021/08/14 00:35:04;;;;;;;13.40;12.10;;;22.50;99.10;;;;;;4957586;28;20559;-92
2021/08/14 00:37:34;;;;;;;14.30;13.00;;;22.40;99.20;;;;;;4957385;28;20472;-92
2021/08/14 00:40:01;;;;;;;15.40;13.10;;;22.40;99.30;;;;;;4953565;28;20455;-92
2021/08/14 00:42:28;;;;;;;14.30;12.83;;;22.40;99.70;;;;;;4938381;29;20445;-92
2021/08/14 00:44:57;;;;;;;13.70;12.20;;;22.40;99.90;;;;;;4937833;29;20454;-92
2021/08/14 00:47:25;;;;;;;14.03;12.73;;;22.20;99.90;;;;;;4937539;29;20460;-93
2021/08/14 00:49:55;;;;;;;19.20;12.40;;;22.20;99.90;;;;;;4938108;29;20955;-92
2021/08/14 00:52:23;;;;;;;13.10;11.80;;;22.10;99.90;;;;;;4946689;29;20452;-91
2021/08/14 00:54:57;;;;;;;12.53;11.43;;;22.00;99.90;;;;;;4942112;29;20483;-91
2021/08/14 00:57:34;;;;;;;13.03;11.90;;;22.00;99.90;;;;;;4938433;29;20455;-92
2021/08/14 01:00:03;;;;;;;13.33;11.93;;;22.00;99.90;;;;;;4937433;29;20458;-92
2021/08/14 01:02:33;;;;;;;18.13;12.60;;;22.10;99.90;;;;;;4937477;29;20963;-92
2021/08/14 01:04:59;;;;;;;13.97;12.73;;;22.10;99.90;;;;;;4937392;29;20501;-92
2021/08/14 01:07:46;;;;;;;14.37;12.93;;;22.00;99.90;;;;;;4937064;29;20448;-92
2021/08/14 01:10:26;;;;;;;13.30;11.97;;;22.00;99.90;;;;;;4929885;29;20531;-92
2021/08/14 01:12:56;;;;;;;14.00;12.10;;;21.90;99.90;;;;;;4939352;29;20446;-92
2021/08/14 01:15:31;;;;;;;13.67;12.10;;;21.90;99.90;;;;;;4976338;28;20469;-91
2021/08/14 01:18:02;;;;;;;13.93;12.53;;;21.80;99.90;;;;;;4972359;28;20485;-92
2021/08/14 01:20:35;;;;;;;13.23;12.10;;;21.80;99.90;;;;;;4956614;28;20490;-92
2021/08/14 01:23:06;;;;;;;13.70;12.40;;;21.80;99.90;;;;;;4957947;28;20942;-92
2021/08/14 01:25:33;;;;;;;14.57;13.27;;;21.80;99.90;;;;;;4956044;28;20547;-92
2021/08/14 01:28:01;;;;;;;14.07;12.57;;;21.80;99.90;;;;;;4955549;28;20477;-91
2021/08/14 01:30:28;;;;;;;16.70;12.97;;;21.80;99.90;;;;;;4952661;28;20453;-92
2021/08/14 01:32:55;;;;;;;14.00;12.23;;;21.70;99.90;;;;;;4955917;28;20555;-92
2021/08/14 01:35:22;;;;;;;13.47;12.17;;;21.70;99.90;;;;;;4955742;28;20493;-92
2021/08/14 01:37:48;;;;;;;15.63;13.63;;;21.70;99.90;;;;;;4956749;28;20469;-91
2021/08/14 01:40:17;;;;;;;14.80;13.40;;;21.60;99.90;;;;;;4955836;28;20970;-92
2021/08/14 01:42:44;;;;;;;13.33;12.17;;;21.60;99.90;;;;;;4967562;28;20449;-92
2021/08/14 01:45:12;;;;;;;15.77;14.13;;;21.50;99.90;;;;;;4951980;28;20824;-92
2021/08/14 01:47:39;;;;;;;14.23;12.87;;;21.50;99.90;;;;;;4936879;29;20497;-92
2021/08/14 01:50:06;;;;;;;17.60;13.17;;;21.40;99.90;;;;;;4936735;29;20446;-90
2021/08/14 01:52:33;;;;;;;13.67;12.27;;;21.50;99.90;;;;;;4936860;29;20927;-90
2021/08/14 01:55:00;;;;;;;13.27;12.07;;;21.40;99.90;;;;;;4936290;29;20496;-91
2021/08/14 01:57:27;;;;;;;15.23;13.50;;;21.40;99.90;;;;;;4936976;29;20449;-90
2021/08/14 01:59:53;;;;;;;12.40;11.10;;;21.30;99.90;;;;;;4943698;29;20458;-90
2021/08/14 02:02:21;;;;;;;16.03;13.43;;;21.40;99.90;;;;;;4956607;29;20468;-90
2021/08/14 02:04:48;;;;;;;15.67;13.60;;;21.30;99.90;;;;;;4936427;29;20456;-90
2021/08/14 02:07:15;;;;;;;13.70;12.53;;;21.30;99.90;;;;;;4937548;29;20452;-91
2021/08/14 02:09:42;;;;;;;14.80;13.37;;;21.30;99.90;;;;;;4949372;28;20457;-91
2021/08/14 02:12:09;;;;;;;13.80;12.53;;;21.20;99.90;;;;;;4972239;28;20429;-91
2021/08/14 02:14:35;;;;;;;15.13;12.03;;;21.10;99.90;;;;;;4956099;28;20976;-92
2021/08/14 02:17:02;;;;;;;14.00;12.63;;;21.10;99.90;;;;;;4964523;28;20480;-91
2021/08/14 02:19:31;;;;;;;15.27;13.67;;;21.10;99.90;;;;;;4960382;28;20468;-90
2021/08/14 02:21:58;;;;;;;14.27;12.77;;;21.10;99.90;;;;;;4962347;28;20464;-91
2021/08/14 02:24:25;;;;;;;13.23;11.80;;;21.10;99.90;;;;;;4958440;28;20452;-91
2021/08/14 02:26:52;;;;;;;14.77;11.10;;;21.10;99.90;;;;;;4957087;28;20436;-91
2021/08/14 02:29:18;;;;;;;14.60;13.20;;;21.10;99.90;;;;;;4960530;28;20459;-91
2021/08/14 02:31:45;;;;;;;13.80;12.53;;;21.00;99.90;;;;;;4955433;28;20459;-91
2021/08/14 02:34:12;;;;;;;15.63;13.00;;;21.00;99.90;;;;;;4955861;28;20461;-90
2021/08/14 02:36:40;;;;;;;16.10;14.60;;;20.90;99.90;;;;;;4955485;28;20492;-91
2021/08/14 02:39:07;;;;;;;14.00;12.57;;;20.90;99.90;;;;;;4954448;28;20485;-91
2021/08/14 02:41:34;;;;;;;13.67;12.37;;;20.80;99.90;;;;;;4955358;28;20453;-91
2021/08/14 02:44:01;;;;;;;13.43;12.03;;;20.80;99.90;;;;;;4963705;28;20520;-91
2021/08/14 02:46:27;;;;;;;13.10;11.80;;;20.70;99.90;;;;;;4955386;28;20452;-91
2021/08/14 02:48:54;;;;;;;14.43;13.03;;;20.70;99.90;;;;;;4950728;28;20481;-91
2021/08/14 02:51:21;;;;;;;14.80;13.40;;;20.60;99.90;;;;;;4939823;29;20533;-91
2021/08/14 02:53:51;;;;;;;13.53;12.13;;;20.60;99.90;;;;;;4939978;29;20453;-92
2021/08/14 02:56:18;;;;;;;13.67;12.40;;;20.60;99.90;;;;;;4955238;29;20591;-91
2021/08/14 02:58:45;;;;;;;13.27;11.87;;;20.60;99.90;;;;;;4939752;29;20464;-92
2021/08/14 03:01:12;;;;;;;14.23;12.37;;;20.70;99.90;;;;;;4939590;29;21014;-91
2021/08/14 03:03:39;;;;;;;14.47;13.10;;;20.60;99.90;;;;;;4939750;29;20516;-90
2021/08/14 03:06:22;;;;;;;12.90;11.80;;;20.60;99.90;;;;;;4954385;28;20453;-91
2021/08/14 03:08:52;;;;;;;15.97;12.57;;;20.50;99.90;;;;;;4959015;28;20989;-92
2021/08/14 03:11:22;;;;;;;14.43;12.60;;;20.50;99.90;;;;;;4964239;28;20455;-92
2021/08/14 03:13:48;;;;;;;14.10;12.70;;;20.50;99.90;;;;;;4983853;28;20435;-90
2021/08/14 03:16:15;;;;;;;14.10;12.80;;;20.40;99.90;;;;;;4983404;28;20501;-90
2021/08/14 03:18:48;;;;;;;14.43;13.00;;;20.50;99.90;;;;;;4981888;28;20475;-90
2021/08/14 03:21:15;;;;;;;14.67;13.10;;;20.50;99.90;;;;;;4980741;28;20474;-90
2021/08/14 03:23:42;;;;;;;15.37;13.97;;;20.50;99.90;;;;;;4954942;29;20536;-91
2021/08/14 03:26:10;;;;;;;15.30;13.90;;;20.40;99.90;;;;;;4943960;29;20487;-91
2021/08/14 03:28:39;;;;;;;14.53;12.93;;;20.40;99.90;;;;;;4944047;29;20483;-91
2021/08/14 03:31:06;;;;;;;16.57;14.97;;;20.30;99.90;;;;;;4955336;29;20464;-92
2021/08/14 03:33:32;;;;;;;16.47;14.87;;;20.30;99.90;;;;;;4972081;28;20459;-91
2021/08/14 03:35:59;;;;;;;16.60;14.90;;;20.30;99.90;;;;;;4972892;28;20492;-91
2021/08/14 03:38:26;;;;;;;15.80;14.23;;;20.20;99.90;;;;;;4954269;28;20480;-91
2021/08/14 03:40:53;;;;;;;14.33;12.80;;;20.30;99.90;;;;;;4943290;29;20460;-92
2021/08/14 03:43:21;;;;;;;15.60;14.20;;;20.20;99.90;;;;;;4939957;29;20472;-92
2021/08/14 03:45:48;;;;;;;15.90;14.30;;;20.20;99.90;;;;;;4942973;29;20470;-92
2021/08/14 03:48:17;;;;;;;14.60;13.10;;;20.20;99.90;;;;;;4958741;28;20483;-92
2021/08/14 03:50:46;;;;;;;14.37;13.07;;;20.20;99.90;;;;;;4959477;28;20463;-92
2021/08/14 03:53:13;;;;;;;15.03;13.63;;;20.20;99.90;;;;;;4962536;28;20455;-92
2021/08/14 03:55:40;;;;;;;16.00;14.50;;;20.10;99.90;;;;;;4950270;28;20490;-92
2021/08/14 03:58:06;;;;;;;13.90;12.60;;;20.10;99.90;;;;;;4940300;29;20479;-92
2021/08/14 04:00:36;;;;;;;15.70;14.13;;;20.20;99.90;;;;;;4939398;29;20469;-92
2021/08/14 04:03:12;;;;;;;16.93;15.20;;;20.10;99.90;;;;;;4940045;29;20487;-92
2021/08/14 04:05:39;;;;;;;15.20;13.80;;;20.10;99.90;;;;;;4939747;29;20535;-91
2021/08/14 04:08:05;;;;;;;16.10;14.63;;;20.00;99.90;;;;;;4939664;29;20600;-91
2021/08/14 04:10:32;;;;;;;15.77;14.00;;;20.00;99.90;;;;;;4938238;29;20453;-92
2021/08/14 04:12:59;;;;;;;15.47;13.93;;;19.90;99.90;;;;;;4947330;29;20851;-91
2021/08/14 04:15:29;;;;;;;16.10;14.67;;;19.90;99.90;;;;;;4955978;29;20891;-92
2021/08/14 04:17:57;;;;;;;16.90;15.30;;;19.90;99.90;;;;;;4939187;29;20923;-92
2021/08/14 04:20:27;;;;;;;14.70;13.40;;;20.00;99.90;;;;;;4939179;29;20456;-91
2021/08/14 04:22:53;;;;;;;15.40;13.93;;;19.90;99.90;;;;;;4940209;29;20454;-92
2021/08/14 04:25:20;;;;;;;15.37;13.97;;;20.00;99.90;;;;;;4956830;28;20452;-91
2021/08/14 04:27:47;;;;;;;14.90;13.50;;;19.90;99.90;;;;;;4956130;28;20482;-92
2021/08/14 04:30:14;;;;;;;15.70;14.10;;;20.00;99.90;;;;;;4956712;28;20490;-91
2021/08/14 04:32:41;;;;;;;14.37;13.07;;;19.90;99.90;;;;;;4956946;28;20545;-92
2021/08/14 04:35:12;;;;;;;15.63;14.13;;;19.90;99.90;;;;;;4957431;28;20462;-91
2021/08/14 04:37:40;;;;;;;16.63;14.90;;;19.90;99.90;;;;;;4958308;28;20487;-91
2021/08/14 04:40:09;;;;;;;17.23;15.17;;;19.80;99.90;;;;;;4958383;28;20451;-92
2021/08/14 04:42:36;;;;;;;15.50;14.10;;;19.80;99.90;;;;;;4956970;28;20521;-92
2021/08/14 04:45:03;;;;;;;14.87;13.47;;;19.90;99.90;;;;;;4956880;29;20453;-91
2021/08/14 04:47:30;;;;;;;15.63;13.37;;;19.90;99.90;;;;;;4956801;28;20469;-92
2021/08/14 04:49:57;;;;;;;14.53;12.93;;;19.90;99.90;;;;;;4972068;28;20455;-92
2021/08/14 04:52:25;;;;;;;16.03;14.17;;;20.00;99.90;;;;;;4957269;28;20447;-92
2021/08/14 04:54:52;;;;;;;16.47;15.13;;;20.00;99.90;;;;;;4961991;29;20468;-92
2021/08/14 04:57:19;;;;;;;16.77;15.17;;;20.10;99.90;;;;;;4959411;28;21025;-92
2021/08/14 04:59:45;;;;;;;20.10;14.23;;;20.30;99.90;;;;;;4977496;28;20456;-92
2021/08/14 05:02:12;;;;;;;14.00;12.70;;;20.60;99.90;;;;;;4957076;28;20546;-91
2021/08/14 05:04:39;;;;;;;19.13;14.60;;;21.00;99.90;;;;;;4938192;29;20461;-92
2021/08/14 05:07:06;;;;;;;14.63;13.07;;;21.40;99.90;;;;;;4940624;29;20473;-92
2021/08/14 05:09:37;;;;;;;16.57;13.50;;;21.70;99.90;;;;;;4954183;28;20485;-89
2021/08/14 05:12:06;;;;;;;13.93;12.63;;;22.00;99.90;;;;;;4966010;28;20453;-91
2021/08/14 05:14:32;;;;;;;15.37;13.13;;;22.40;99.90;;;;;;4960828;28;20462;-91
2021/08/14 05:16:59;;;;;;;15.53;13.73;;;22.70;99.90;;;;;;4974842;28;20465;-90
2021/08/14 05:19:26;;;;;;;20.73;14.03;;;22.90;99.90;;;;;;4979727;28;20472;-91
2021/08/14 05:21:58;;;;;;;17.27;13.03;;;23.30;99.90;;;;;;4974643;28;20484;-92
2021/08/14 05:24:30;;;;;;;15.03;13.53;;;23.40;99.90;;;;;;4953780;28;20460;-92
2021/08/14 05:26:58;;;;;;;15.07;13.53;;;23.20;99.90;;;;;;4939221;29;20453;-92
2021/08/14 05:29:25;;;;;;;15.80;14.40;;;23.40;99.90;;;;;;4938294;29;20512;-91
2021/08/14 05:31:51;;;;;;;14.73;13.30;;;23.60;99.90;;;;;;4940028;29;20449;-92
2021/08/14 05:34:18;;;;;;;17.37;13.70;;;23.70;99.90;;;;;;4938643;29;20999;-92
2021/08/14 05:36:45;;;;;;;14.63;13.33;;;24.00;99.90;;;;;;4939000;29;20489;-91
2021/08/14 05:39:15;;;;;;;14.13;12.63;;;24.30;99.90;;;;;;4951210;28;20585;-91
2021/08/14 05:41:44;;;;;;;15.30;13.10;;;24.30;99.90;;;;;;4957330;28;20449;-91
2021/08/14 05:44:15;;;;;;;15.73;14.20;;;24.10;99.90;;;;;;4957756;28;20516;-91
2021/08/14 05:46:42;;;;;;;14.63;12.80;;;23.80;99.90;;;;;;4958133;28;20459;-92
2021/08/14 05:49:09;;;;;;;15.60;14.00;;;23.50;99.90;;;;;;4956877;28;20906;-92
2021/08/14 05:51:42;;;;;;;13.67;12.47;;;23.60;99.90;;;;;;4956963;28;20988;-92
2021/08/14 05:54:09;;;;;;;14.70;13.60;;;24.00;99.90;;;;;;4954515;28;20982;-92
2021/08/14 05:56:36;;;;;;;15.60;14.20;;;24.70;99.90;;;;;;4956212;28;21005;-91
2021/08/14 05:59:03;;;;;;;14.90;13.63;;;25.10;99.90;;;;;;4955768;28;20476;-92
2021/08/14 06:01:32;;;;;;;14.50;13.10;;;25.30;99.90;;;;;;4953725;28;20988;-92
2021/08/14 06:04:04;;;;;;;15.93;13.57;;;25.80;99.90;;;;;;4940115;29;20446;-92
2021/08/14 06:06:42;;;;;;;15.23;13.80;;;26.20;99.90;;;;;;4957250;29;20431;-92
2021/08/14 06:09:13;;;;;;;14.60;13.30;;;26.80;99.00;;;;;;4976037;28;20500;-91
2021/08/14 06:11:40;;;;;;;15.20;13.70;;;27.30;97.60;;;;;;4957869;28;20468;-92
2021/08/14 06:14:07;;;;;;;14.17;12.97;;;27.60;96.40;;;;;;4956141;28;20455;-91
2021/08/14 06:16:39;;;;;;;13.70;12.40;;;27.90;95.80;;;;;;4956687;28;20828;-91
2021/08/14 06:19:17;;;;;;;14.70;13.30;;;28.10;95.00;;;;;;4957215;28;20464;-92
2021/08/14 06:24:53;;;;;;;13.70;12.63;;;28.60;93.40;;;;;;4953378;28;20443;-92
2021/08/14 06:27:20;;;;;;;13.63;12.43;;;28.80;92.50;;;;;;4955557;28;20462;-92
2021/08/14 06:29:47;;;;;;;12.67;11.57;;;29.40;91.80;;;;;;4955786;28;20491;-92
2021/08/14 06:32:16;;;;;;;11.63;10.63;;;29.90;90.20;;;;;;4961865;28;20537;-91
2021/08/14 06:34:51;;;;;;;13.43;12.23;;;30.10;88.00;;;;;;4960914;28;20474;-91
2021/08/14 06:37:21;;;;;;;12.73;11.63;;;30.00;87.20;;;;;;4937136;29;20509;-91
2021/08/14 06:39:59;;;;;;;13.40;12.10;;;29.60;87.30;;;;;;4936350;29;20533;-92
2021/08/14 06:42:56;;;;;;;12.90;11.80;;;29.70;88.10;;;;;;4936547;29;20458;-91
2021/08/14 06:45:33;;;;;;;13.10;11.90;;;29.80;87.50;;;;;;4943353;29;20461;-91
2021/08/14 06:48:01;;;;;;;12.57;11.50;;;30.10;86.50;;;;;;4952163;29;20468;-87
2021/08/14 06:50:28;;;;;;;12.50;11.30;;;30.40;84.90;;;;;;4954274;28;20482;-87
2021/08/14 06:52:55;;;;;;;13.10;11.77;;;30.50;85.20;;;;;;4954085;28;20453;-88
2021/08/14 06:55:22;;;;;;;13.10;11.90;;;31.20;83.00;;;;;;4954765;28;21004;-85
2021/08/14 06:57:48;;;;;;;13.10;11.87;;;31.60;80.60;;;;;;4955233;29;20485;-85
2021/08/14 07:00:16;;;;;;;16.00;12.20;;;31.80;78.90;;;;;;4955322;28;20457;-86
2021/08/14 07:02:44;;;;;;;12.77;11.60;;;31.90;77.60;;;;;;4971218;28;20452;-89
2021/08/14 07:05:13;;;;;;;12.33;10.80;;;31.70;78.00;;;;;;4960483;28;20452;-85
2021/08/14 07:07:40;;;;;;;12.50;11.20;;;32.20;76.30;;;;;;4955781;28;20465;-84
2021/08/14 07:10:08;;;;;;;11.90;10.90;;;32.30;75.30;;;;;;4971093;29;20445;-85
2021/08/14 07:12:35;;;;;;;10.67;9.67;;;32.50;75.20;;;;;;4976481;29;20460;-85
2021/08/14 07:15:02;;;;;;;11.40;10.23;;;32.60;73.20;;;;;;4978094;28;20455;-89
2021/08/14 07:17:29;;;;;;;11.23;10.23;;;32.20;74.60;;;;;;4956716;28;20557;-84
2021/08/14 07:19:56;;;;;;;11.80;10.60;;;32.50;73.70;;;;;;4937696;29;20818;-86
2021/08/14 07:22:24;;;;;;;12.50;11.30;;;32.00;73.60;;;;;;4937572;29;20536;-87
2021/08/14 07:24:51;;;;;;;12.33;10.50;;;31.90;75.30;;;;;;4951123;29;20444;-87
2021/08/14 07:27:18;;;;;;;12.63;11.53;;;32.90;73.30;;;;;;4974896;28;20457;-87
2021/08/14 07:29:44;;;;;;;12.00;10.90;;;33.00;72.80;;;;;;4960274;28;20452;-86
2021/08/14 07:32:13;;;;;;;11.20;10.10;;;34.00;69.80;;;;;;4935285;29;20458;-87
2021/08/14 07:34:40;;;;;;;13.27;12.07;;;34.60;67.00;;;;;;4942155;29;20453;-87
2021/08/14 07:37:07;;;;;;;12.23;11.07;;;34.80;64.90;;;;;;4939455;29;20519;-86
2021/08/14 07:39:35;;;;;;;10.93;10.07;;;34.90;64.70;;;;;;4938300;29;20477;-87
2021/08/14 07:42:02;;;;;;;11.63;10.43;;;35.50;62.10;;;;;;4939068;29;20464;-90
2021/08/14 07:44:28;;;;;;;11.97;10.77;;;35.10;61.40;;;;;;4945741;28;20460;-87
2021/08/14 07:46:55;;;;;;;11.03;9.90;;;35.30;62.70;;;;;;4958135;29;20817;-87
2021/08/14 07:49:22;;;;;;;11.13;10.13;;;35.60;62.00;;;;;;4957344;28;20469;-87
2021/08/14 07:51:49;;;;;;;11.63;10.60;;;36.00;59.10;;;;;;4957358;29;20449;-88
2021/08/14 07:54:16;;;;;;;12.30;10.70;;;36.00;58.70;;;;;;4956936;28;20459;-88
2021/08/14 07:56:44;;;;;;;11.47;10.57;;;36.00;59.50;;;;;;4956811;28;20484;-88
2021/08/14 07:59:12;;;;;;;11.83;10.67;;;36.30;58.10;;;;;;4944679;28;20478;-89
2021/08/14 08:01:38;;;;;;;13.00;11.90;;;36.40;58.10;;;;;;4939033;29;20974;-86
2021/08/14 08:04:05;;;;;;;13.47;11.27;;;36.70;57.10;;;;;;4959639;28;20456;-87
2021/08/14 08:06:32;;;;;;;11.90;10.90;;;37.30;56.70;;;;;;4960918;28;20456;-87
2021/08/14 08:08:58;;;;;;;11.13;9.70;;;38.00;55.40;;;;;;4959509;28;20468;-85
2021/08/14 08:11:25;;;;;;;11.63;10.63;;;38.10;53.80;;;;;;4959641;28;20452;-87
2021/08/14 08:13:53;;;;;;;11.33;10.43;;;37.60;54.00;;;;;;4942409;29;20457;-87
2021/08/14 08:16:19;;;;;;;10.50;9.50;;;37.60;54.70;;;;;;4936434;29;20441;-87
2021/08/14 08:18:46;;;;;;;9.90;9.10;;;37.90;53.80;;;;;;4956847;29;20973;-86
2021/08/14 08:21:13;;;;;;;11.43;10.50;;;37.90;53.30;;;;;;4956695;28;20440;-88
2021/08/14 08:23:40;;;;;;;10.10;9.40;;;38.50;52.50;;;;;;4956897;29;20437;-85
2021/08/14 08:26:06;;;;;;;10.97;9.97;;;37.90;52.20;;;;;;4964568;29;20463;-87
2021/08/14 08:28:33;;;;;;;10.20;9.50;;;38.10;52.90;;;;;;4958606;28;20473;-87
2021/08/14 08:31:01;;;;;;;11.03;10.10;;;38.50;53.20;;;;;;4959126;29;20492;-88
2021/08/14 08:33:28;;;;;;;11.40;10.50;;;38.70;51.70;;;;;;4959487;29;20836;-88
2021/08/14 08:35:54;;;;;;;10.70;9.60;;;38.90;51.30;;;;;;4957733;28;20437;-87
2021/08/14 08:38:22;;;;;;;11.03;10.03;;;39.10;51.20;;;;;;4957559;29;20488;-87
2021/08/14 08:40:48;;;;;;;11.30;9.50;;;39.30;50.70;;;;;;4955972;28;20802;-89
2021/08/14 08:43:15;;;;;;;10.13;9.23;;;39.50;49.80;;;;;;4960187;29;20832;-88
2021/08/14 08:45:42;;;;;;;10.40;9.50;;;40.30;48.70;;;;;;4959406;28;20449;-87
2021/08/14 08:48:11;;;;;;;10.50;9.60;;;40.50;47.30;;;;;;4956611;29;20468;-87
2021/08/14 08:50:38;;;;;;;10.60;9.60;;;41.10;46.10;;;;;;4957913;28;20449;-87
2021/08/14 08:53:05;;;;;;;12.43;11.43;;;40.80;46.10;;;;;;4956902;29;20445;-84
2021/08/14 08:55:33;;;;;;;10.57;9.50;;;40.00;47.40;;;;;;4961475;29;20457;-86
2021/08/14 08:58:00;;;;;;;9.90;9.00;;;40.50;46.50;;;;;;4953732;29;20520;-85
2021/08/14 09:00:27;;;;;;;10.23;9.33;;;39.80;46.50;;;;;;4953616;28;20806;-84
2021/08/14 09:03:12;;;;;;;9.20;8.50;;;40.10;47.20;;;;;;4961834;29;20469;-84
2021/08/14 09:05:50;;;;;;;8.50;7.80;;;40.70;45.90;;;;;;4976488;28;20439;-90
2021/08/14 09:08:17;;;;;;;9.30;8.50;;;41.40;45.20;;;;;;4975377;28;20457;-92
2021/08/14 09:10:45;;;;;;;8.90;8.10;;;42.10;44.50;;;;;;4974195;29;20426;-92
2021/08/14 09:13:22;;;;;;;8.97;8.17;;;42.50;42.40;;;;;;4965378;28;20473;-92
2021/08/14 09:15:53;;;;;;;9.13;8.33;;;41.60;44.10;;;;;;4962778;28;20460;-92
2021/08/14 09:18:24;;;;;;;9.40;8.60;;;41.10;44.30;;;;;;4963287;28;20488;-92
2021/08/14 09:20:53;;;;;;;9.13;8.43;;;41.80;42.90;;;;;;4961776;28;20445;-93
2021/08/14 09:23:21;;;;;;;9.70;8.80;;;41.80;42.10;;;;;;4959531;28;20472;-92
2021/08/14 09:25:49;;;;;;;10.47;8.20;;;41.40;42.50;;;;;;4960491;29;20521;-92
2021/08/14 09:28:17;;;;;;;8.20;7.50;;;41.70;42.60;;;;;;4959496;28;20461;-92
2021/08/14 09:30:52;;;;;;;9.73;8.97;;;42.50;41.90;;;;;;4962644;29;20445;-93
2021/08/14 09:33:23;;;;;;;10.07;8.73;;;42.20;41.80;;;;;;4961559;28;20449;-92
2021/08/14 09:35:56;;;;;;;9.30;8.60;;;42.20;40.70;;;;;;4961023;28;20441;-91
2021/08/14 09:38:23;;;;;;;8.90;8.30;;;42.60;40.00;;;;;;4977020;28;20478;-92
2021/08/14 09:40:50;;;;;;;9.10;8.17;;;43.40;39.50;;;;;;4974556;28;20524;-92
2021/08/14 09:43:35;;;;;;;9.40;8.40;;;44.00;38.20;;;;;;4945909;29;20445;-92
2021/08/14 09:46:02;;;;;;;8.40;7.70;;;44.50;38.40;;;;;;4953223;28;20819;-92
2021/08/14 09:48:31;;;;;;;9.47;8.70;;;44.80;36.90;;;;;;4946963;28;20571;-91
2021/08/14 09:50:58;;;;;;;9.57;8.77;;;44.70;36.60;;;;;;4967282;29;20457;-92
2021/08/14 09:53:26;;;;;;;9.10;8.50;;;44.50;36.90;;;;;;4947717;29;20452;-91
2021/08/14 09:56:06;;;;;;;8.90;8.23;;;44.50;37.30;;;;;;4940221;29;20449;-92
2021/08/14 09:58:34;;;;;;;8.50;7.87;;;45.20;36.20;;;;;;4939551;29;21029;-92
2021/08/14 10:01:04;;;;;;;9.43;8.63;;;45.50;35.70;;;;;;4940351;29;20454;-92
2021/08/14 10:03:36;;;;;;;8.53;7.57;;;45.80;35.20;;;;;;4940351;29;20478;-91
2021/08/14 10:06:04;;;;;;;8.70;8.00;;;46.00;34.50;;;;;;4938408;29;20458;-92
2021/08/14 10:08:31;;;;;;;8.67;7.97;;;45.50;34.80;;;;;;4938432;29;20469;-91
2021/08/14 10:10:58;;;;;;;9.20;8.40;;;44.30;35.50;;;;;;4957528;29;20460;-91
2021/08/14 10:13:25;;;;;;;9.30;8.50;;;43.00;36.90;;;;;;4963481;28;20969;-91
2021/08/14 10:15:52;;;;;;;9.63;8.23;;;41.10;40.00;;;;;;4961560;28;20449;-91
2021/08/14 10:18:20;;;;;;;8.80;8.10;;;41.80;39.60;;;;;;4956982;28;20483;-91
2021/08/14 10:20:49;;;;;;;9.27;8.40;;;42.90;38.00;;;;;;4958169;29;20449;-91
2021/08/14 10:23:20;;;;;;;8.40;7.90;;;43.60;37.20;;;;;;4971783;28;20453;-91
2021/08/14 10:25:49;;;;;;;9.40;8.60;;;45.20;35.80;;;;;;4956653;28;20457;-92
2021/08/14 10:28:16;;;;;;;9.40;8.43;;;44.10;36.00;;;;;;4959084;28;20887;-92
2021/08/14 10:30:46;;;;;;;9.80;9.10;;;43.60;36.70;;;;;;4958805;29;20950;-91
2021/08/14 10:33:35;;;;;;;9.10;8.30;;;43.60;36.90;;;;;;4957948;28;20436;-91
2021/08/14 10:36:35;;;;;;;9.07;8.37;;;44.30;36.40;;;;;;4960140;29;20977;-91
2021/08/14 10:39:18;;;;;;;9.37;8.50;;;45.30;35.40;;;;;;4965545;28;20492;-91
2021/08/14 10:41:47;;;;;;;9.53;8.67;;;45.00;35.00;;;;;;4958972;29;20459;-91
2021/08/14 10:44:14;;;;;;;9.20;8.50;;;45.00;34.90;;;;;;4955874;28;20491;-91
2021/08/14 10:46:50;;;;;;;9.40;8.70;;;44.20;35.70;;;;;;4965216;29;20464;-91
2021/08/14 10:49:22;;;;;;;10.40;8.27;;;43.70;36.40;;;;;;4942528;28;20561;-90
2021/08/14 10:52:13;;;;;;;9.60;8.90;;;44.30;36.20;;;;;;4937603;29;20446;-91
2021/08/14 10:55:19;;;;;;;8.00;7.40;;;44.80;35.50;;;;;;4937015;29;20465;-91
2021/08/14 10:57:49;;;;;;;9.83;9.17;;;44.80;34.90;;;;;;4936230;29;20926;-91
2021/08/14 11:00:43;;;;;;;;;;;;;;;;;;;;;
2021/08/14 11:03:12;;;;;;;9.33;8.63;;;45.40;34.60;;;;;;4954920;28;20933;-91
2021/08/14 11:05:43;;;;;;;9.63;8.57;;;46.40;34.50;;;;;;4946331;28;20462;-91
2021/08/14 11:08:25;;;;;;;9.10;8.50;;;47.50;32.20;;;;;;4936195;29;20508;-92
2021/08/14 11:10:53;;;;;;;9.73;8.93;;;48.50;30.70;;;;;;4938292;29;20549;-92
2021/08/14 11:13:50;;;;;;;10.37;9.53;;;48.80;29.70;;;;;;4943441;29;20458;-92
2021/08/14 11:16:50;;;;;;;8.60;7.87;;;49.30;29.80;;;;;;4952340;28;20957;-91
2021/08/14 11:19:48;;;;;;;7.93;7.43;;;49.30;29.00;;;;;;4942252;29;20484;-92
2021/08/14 11:22:19;;;;;;;8.37;7.77;;;49.50;29.40;;;;;;4958371;28;20456;-91
2021/08/14 11:24:48;;;;;;;8.60;7.90;;;49.60;28.70;;;;;;4960247;28;20452;-91
2021/08/14 11:27:21;;;;;;;9.03;8.43;;;49.70;28.50;;;;;;4959485;28;20445;-92
2021/08/14 11:29:52;;;;;;;9.53;8.63;;;49.50;28.90;;;;;;4958438;29;20460;-91
2021/08/14 11:32:19;;;;;;;8.63;8.03;;;49.30;29.00;;;;;;4955478;28;20494;-91
2021/08/14 11:34:50;;;;;;;10.47;8.80;;;49.80;29.30;;;;;;4938858;29;20449;-91
2021/08/14 11:38:10;;;;;;;8.80;8.10;;;48.80;29.30;;;;;;4948242;29;20461;-89
2021/08/14 11:40:41;;;;;;;10.00;9.30;;;49.00;29.20;;;;;;4961277;28;20461;-91
2021/08/14 11:43:10;;;;;;;9.90;9.10;;;48.40;29.50;;;;;;4959145;29;20850;-91
2021/08/14 11:45:39;;;;;;;9.73;9.03;;;46.10;31.50;;;;;;4964286;28;20430;-93
2021/08/14 11:48:08;;;;;;;8.37;7.70;;;44.80;32.70;;;;;;4961851;29;20477;-92
2021/08/14 11:50:36;;;;;;;9.00;8.27;;;45.00;33.10;;;;;;4962205;29;20455;-91
2021/08/14 11:53:04;;;;;;;9.60;8.77;;;45.70;32.40;;;;;;4956094;29;20452;-91
2021/08/14 11:55:31;;;;;;;10.33;9.37;;;45.90;31.70;;;;;;4950284;29;20509;-88
2021/08/14 11:57:59;;;;;;;8.13;7.50;;;45.80;32.00;;;;;;4954130;28;20522;-90
2021/08/14 12:00:28;;;;;;;8.50;7.90;;;45.70;32.40;;;;;;4968964;28;20456;-90
2021/08/14 12:03:10;;;;;;;9.33;8.70;;;46.30;31.70;;;;;;4978161;28;20479;-90
2021/08/14 12:05:37;;;;;;;9.67;8.93;;;45.10;31.80;;;;;;4969635;28;20456;-90
2021/08/14 12:08:04;;;;;;;10.70;9.00;;;44.10;33.60;;;;;;4957577;29;20484;-90
2021/08/14 12:10:32;;;;;;;9.67;8.97;;;44.90;33.20;;;;;;4957154;28;20465;-87
2021/08/14 12:13:01;;;;;;;9.10;8.40;;;46.00;32.20;;;;;;4957036;29;20449;-87
2021/08/14 12:15:36;;;;;;;10.53;9.57;;;46.70;31.10;;;;;;4957241;28;20449;-93
2021/08/14 12:18:03;;;;;;;8.60;7.90;;;48.10;29.70;;;;;;4957054;29;20488;-90
2021/08/14 12:20:31;;;;;;;8.83;8.13;;;48.10;29.70;;;;;;4956369;28;20460;-90
2021/08/14 12:23:19;;;;;;;9.83;9.17;;;49.00;29.40;;;;;;4946080;29;20525;-90
2021/08/14 12:25:50;;;;;;;10.57;9.57;;;46.60;30.20;;;;;;4937175;29;20454;-91
2021/08/14 12:28:18;;;;;;;9.30;8.63;;;45.50;32.10;;;;;;4935859;29;20493;-90
2021/08/14 12:30:46;;;;;;;9.93;9.33;;;45.10;32.00;;;;;;4945596;29;20453;-91
2021/08/14 12:33:30;;;;;;;9.53;8.83;;;45.70;31.90;;;;;;4956436;28;20500;-90
2021/08/14 12:35:59;;;;;;;10.53;9.63;;;46.20;31.10;;;;;;4957210;28;20449;-90
2021/08/14 12:38:26;;;;;;;9.20;8.40;;;46.10;31.30;;;;;;4958356;28;20491;-91
2021/08/14 12:40:53;;;;;;;9.33;8.50;;;47.10;30.40;;;;;;4956581;28;20452;-90
2021/08/14 12:43:23;;;;;;;9.70;9.00;;;45.60;31.30;;;;;;4963193;28;20945;-89
2021/08/14 12:45:50;;;;;;;9.23;8.63;;;44.10;33.50;;;;;;4943058;29;20446;-91
2021/08/14 12:48:18;;;;;;;10.70;9.80;;;43.30;34.80;;;;;;4940250;29;20812;-89